Wednesday, August 20, 2014
16:38 UTC
  |  Log In   |  Register Free
Airport Search:

John F Kennedy Memorial Airport
(KASX)

John F Kennedy Memorial Airport Diagram
No Airport Diagram Available

FAA data valid effective July 24, 2014 until September 18, 2014 (unless otherwise noted).

 
 
 
 
 
 
 
 
 
 
 
 
 
 

Current Aviation Weather for John F Kennedy Memorial Airport (KASX)

The most recent METAR observation for KASX was updated at: 1753 UTC
METAR Summary (Translated METAR)
KASX
281753Z AUTO 33011KT 10SM SCT049 BKN065 22/12 A3015 RMK AO2 SLP209 T02170117 10228 20128 58003
KIWD
(32.5 nm SE from KASX)
281515Z AUTO 32010KT 10SM FEW070 17/12 A3012 RMK AO1
TAF Summary (Translated TAF)
KIWD
(32.5 nm SE from KASX)
201506Z 2015/2112 30004KT 6SM BR OVC004 FM201700 33005KT P6SM BKN007 FM201800 01005KT P6SM BKN020 FM202000 02005KT P6SM SCT035 FM210100 00000KT P6SM SCT250 AMD NOT SKED
KHYR
(38.2 nm SW from KASX)
201354Z 2014/2112 VRB04KT P6SM SCT005 BKN025 FM201500 VRB04KT P6SM SCT005 BKN035 FM201900 14003KT P6SM SKC FM210600 10002KT 5SM BR OVC008
  Airport Weather Conditions for KASX

 Current Weather at ASX
68° F
Overcast
North winds at 0.0 mph
ASX NOAA Radar

Pressure: 29.90 in
Humidity: 76%
Wind: Calm
Dew Point: 60.1°F
Visibility: 10.00 mi


Airport Weather Forecast for KASX

Translated METAR and TAF for KASX
Translated METAR for KASX (1631 UTC 20 August 2014)
found at http://aviationweather.gov/adds/metars/
 
METAR text: KASX 201610Z AUTO 00000KT 10SM BKN016 OVC036 20/16 A2990 RMK AO2 T02000156
Conditions at: KASX (ASHLAND , WI, US) observed 1610 UTC 20 August 2014
Temperature: 20.0°C (68°F)
Dewpoint: 15.6°C (60°F) [RH = 76%]
Pressure (altimeter): 29.90 inches Hg (1012.6 mb)
Winds: calm
Visibility: 10 or more miles (16+ km)
Ceiling: 1600 feet AGL
Clouds: broken clouds at 1600 feet AGL
overcast cloud deck at 3600 feet AGL
Weather: automated observation with no human augmentation;
there may or may not be significant weather present at this time
Translated TAF for KASX

There is no translated TAF available for this airport

Find All Airport Services Find A Hotel Find A Rental Car Find A Golf Course Find A Restaurant $100 Hamburger



FBO's on the Field
FBO Company Facility Photos Services Transportation Aviation Fuel Prices: Prices include tax
Catering Weather Repair Courtesy Rental Type 100LL JetA JetA+ MOGAS 8087
 
John F Kennedy Memorial Airport

This FBO has not yet been rated
FS:Phillips66
Last Updated: Aug-11
Login to update fuel prices
SS:
Contact John F Kennedy Memorial AirportMore FBO Information
 
Add another FBO Facility Photos Catering Weather Repair Courtesy Rental Type 100LL JetA JetA+ MOGAS 8087
Services Transportation Aviation Fuel Prices: Prices include tax


GlobalAir.com Airport Resource Center model-print
model-print
model-print
model-print